Time,TemperatureF,DewpointF,PressureIn,WindDirection,WindDirectionDegrees,WindSpeedMPH,WindSpeedGustMPH,Humidity,HourlyPrecipIn,Conditions,Clouds,dailyrainin,SoftwareType,DateUTC
2013-04-25 00:04:00,49.0,48.0,29.96,WSW,242,3.0,9.0,96,0.00,,,0.00,weatherlink.com 1.10,2013-04-25 04:04:00,
2013-04-25 00:20:00,49.0,48.0,29.96,SW,219,2.0,7.0,96,0.00,,,0.00,weatherlink.com 1.10,2013-04-25 04:20:00,
2013-04-25 00:35:00,49.4,49.0,29.96,WSW,255,2.0,6.0,97,0.00,,,0.00,weatherlink.com 1.10,2013-04-25 04:35:00,
2013-04-25 00:50:00,49.8,49.0,29.95,SE,145,4.0,8.0,97,0.00,,,0.00,weatherlink.com 1.10,2013-04-25 04:50:00,
2013-04-25 01:05:00,50.6,50.0,29.95,South,172,4.0,11.0,97,0.00,,,0.00,weatherlink.com 1.10,2013-04-25 05:05:00,
2013-04-25 01:20:00,50.8,50.0,29.95,South,179,1.0,7.0,97,0.00,,,0.00,weatherlink.com 1.10,2013-04-25 05:20:00,
2013-04-25 01:35:00,50.9,50.0,29.94,SW,234,0.0,7.0,96,0.00,,,0.00,weatherlink.com 1.10,2013-04-25 05:35:00,
2013-04-25 01:50:00,51.0,50.0,29.94,SSE,160,6.0,10.0,96,0.00,,,0.00,weatherlink.com 1.10,2013-04-25 05:50:00,
2013-04-25 02:05:00,51.1,50.0,29.93,SSW,202,2.0,5.0,96,0.00,,,0.00,weatherlink.com 1.10,2013-04-25 06:05:00,
2013-04-25 02:20:00,51.2,50.0,29.93,SW,216,4.0,6.0,96,0.00,,,0.00,weatherlink.com 1.10,2013-04-25 06:20:00,
2013-04-25 02:35:00,51.2,50.0,29.92,SSE,167,3.0,7.0,96,0.00,,,0.00,weatherlink.com 1.10,2013-04-25 06:35:00,
2013-04-25 02:50:00,51.6,51.0,29.92,WSW,252,0.0,5.0,96,0.00,,,0.00,weatherlink.com 1.10,2013-04-25 06:50:00,
2013-04-25 03:05:00,51.9,51.0,29.92,SSE,157,2.0,7.0,95,0.00,,,0.00,weatherlink.com 1.10,2013-04-25 07:05:00,
2013-04-25 03:20:00,52.1,51.0,29.92,WNW,283,1.0,7.0,95,0.00,,,0.00,weatherlink.com 1.10,2013-04-25 07:20:00,
2013-04-25 03:35:00,52.3,51.0,29.93,SE,139,0.0,6.0,95,0.00,,,0.00,weatherlink.com 1.10,2013-04-25 07:35:00,
2013-04-25 03:50:00,52.4,51.0,29.92,SSW,203,2.0,9.0,94,0.00,,,0.00,weatherlink.com 1.10,2013-04-25 07:50:00,
2013-04-25 04:05:00,52.3,51.0,29.92,SE,143,1.0,8.0,94,0.00,,,0.00,weatherlink.com 1.10,2013-04-25 08:05:00,
2013-04-25 04:20:00,52.2,51.0,29.92,South,175,3.0,5.0,94,0.00,,,0.00,weatherlink.com 1.10,2013-04-25 08:20:00,
2013-04-25 04:35:00,52.1,51.0,29.93,SE,134,5.0,6.0,94,0.00,,,0.00,weatherlink.com 1.10,2013-04-25 08:35:00,
2013-04-25 04:50:00,51.8,50.0,29.93,NW,314,0.0,10.0,94,0.00,,,0.00,weatherlink.com 1.10,2013-04-25 08:50:00,
2013-04-25 05:05:00,51.6,50.0,29.94,SW,221,0.0,6.0,94,0.00,,,0.00,weatherlink.com 1.10,2013-04-25 09:05:00,
2013-04-25 05:20:00,51.3,50.0,29.94,South,169,2.0,3.0,94,0.00,,,0.00,weatherlink.com 1.10,2013-04-25 09:20:00,
2013-04-25 05:35:00,51.0,49.0,29.94,SSW,198,0.0,2.0,94,0.00,,,0.00,weatherlink.com 1.10,2013-04-25 09:35:00,
2013-04-25 05:50:00,50.9,49.0,29.96,NW,304,0.0,3.0,94,0.00,,,0.00,weatherlink.com 1.10,2013-04-25 09:50:00,
2013-04-25 06:05:00,50.9,50.0,29.97,West,281,1.0,2.0,95,0.00,,,0.00,weatherlink.com 1.10,2013-04-25 10:05:00,
2013-04-25 06:20:00,51.1,50.0,29.98,WNW,295,1.0,3.0,94,0.00,,,0.00,weatherlink.com 1.10,2013-04-25 10:20:00,
2013-04-25 06:35:00,51.2,50.0,29.99,WSW,258,0.0,2.0,94,0.00,,,0.00,weatherlink.com 1.10,2013-04-25 10:35:00,
2013-04-25 06:50:00,51.4,50.0,30.00,WSW,245,0.0,1.0,94,0.00,,,0.00,weatherlink.com 1.10,2013-04-25 10:50:00,
2013-04-25 07:05:00,51.7,50.0,30.01,WNW,293,0.0,2.0,94,0.00,,,0.00,weatherlink.com 1.10,2013-04-25 11:05:00,
2013-04-25 07:20:00,52.0,50.0,30.01,West,277,0.0,2.0,94,0.00,,,0.00,weatherlink.com 1.10,2013-04-25 11:20:00,
2013-04-25 07:35:00,52.2,51.0,30.02,WNW,299,2.0,3.0,94,0.01,,,0.01,weatherlink.com 1.10,2013-04-25 11:35:00,
2013-04-25 07:51:00,51.3,48.0,30.03,NW,315,1.0,6.0,87,0.01,,,0.01,weatherlink.com 1.10,2013-04-25 11:51:00,
2013-04-25 08:06:00,50.8,47.0,30.05,NE,40,0.0,7.0,87,0.01,,,0.01,weatherlink.com 1.10,2013-04-25 12:06:00,
2013-04-25 08:21:00,50.5,47.0,30.06,WNW,302,1.0,3.0,88,0.01,,,0.01,weatherlink.com 1.10,2013-04-25 12:21:00,
2013-04-25 08:36:00,50.4,46.0,30.08,WNW,282,2.0,4.0,86,0.00,,,0.01,weatherlink.com 1.10,2013-04-25 12:36:00,
2013-04-25 08:51:00,50.4,46.0,30.06,NW,305,0.0,3.0,84,0.00,,,0.01,weatherlink.com 1.10,2013-04-25 12:51:00,
2013-04-25 09:06:00,50.1,44.0,30.07,WNW,299,1.0,4.0,79,0.00,,,0.01,weatherlink.com 1.10,2013-04-25 13:06:00,
2013-04-25 09:21:00,48.4,43.0,30.09,NW,307,2.0,7.0,80,0.01,,,0.02,weatherlink.com 1.10,2013-04-25 13:21:00,
2013-04-25 09:36:00,48.1,43.0,30.10,SW,233,1.0,2.0,83,0.01,,,0.02,weatherlink.com 1.10,2013-04-25 13:36:00,
2013-04-25 09:51:00,48.3,42.0,30.10,West,281,3.0,11.0,78,0.01,,,0.02,weatherlink.com 1.10,2013-04-25 13:51:00,
2013-04-25 10:06:00,48.4,42.0,30.09,NW,316,1.0,5.0,77,0.01,,,0.02,weatherlink.com 1.10,2013-04-25 14:06:00,
2013-04-25 10:21:00,49.1,41.0,30.11,WNW,299,2.0,7.0,73,0.00,,,0.02,weatherlink.com 1.10,2013-04-25 14:21:00,
2013-04-25 10:36:00,49.9,40.0,30.10,NNE,13,2.0,5.0,69,0.00,,,0.02,weatherlink.com 1.10,2013-04-25 14:36:00,
2013-04-25 10:51:00,50.5,40.0,30.12,WNW,283,1.0,6.0,67,0.00,,,0.02,weatherlink.com 1.10,2013-04-25 14:51:00,
2013-04-25 11:06:00,51.4,39.0,30.11,NE,36,1.0,7.0,64,0.00,,,0.02,weatherlink.com 1.10,2013-04-25 15:06:00,
2013-04-25 11:21:00,52.2,38.0,30.11,WNW,283,3.0,5.0,60,0.00,,,0.02,weatherlink.com 1.10,2013-04-25 15:21:00,
2013-04-25 11:36:00,54.4,39.0,30.11,West,280,3.0,6.0,57,0.00,,,0.02,weatherlink.com 1.10,2013-04-25 15:36:00,
2013-04-25 11:52:00,56.3,39.0,30.12,NW,324,0.0,6.0,52,0.00,,,0.02,weatherlink.com 1.10,2013-04-25 15:52:00,
2013-04-25 12:06:00,57.5,38.0,30.12,WNW,283,0.0,6.0,48,0.00,,,0.02,weatherlink.com 1.10,2013-04-25 16:06:00,
2013-04-25 12:21:00,57.8,38.0,30.12,WNW,291,3.0,8.0,48,0.00,,,0.02,weatherlink.com 1.10,2013-04-25 16:21:00,
2013-04-25 12:36:00,58.5,38.0,30.13,NW,308,2.0,5.0,47,0.00,,,0.02,weatherlink.com 1.10,2013-04-25 16:36:00,
2013-04-25 12:51:00,59.3,38.0,30.12,West,273,1.0,6.0,46,0.00,,,0.02,weatherlink.com 1.10,2013-04-25 16:51:00,
2013-04-25 13:06:00,60.7,37.0,30.13,WNW,284,4.0,5.0,42,0.00,,,0.02,weatherlink.com 1.10,2013-04-25 17:06:00,
2013-04-25 13:21:00,61.0,38.0,30.12,WSW,243,2.0,5.0,42,0.00,,,0.02,weatherlink.com 1.10,2013-04-25 17:21:00,
2013-04-25 13:36:00,61.4,39.0,30.12,SSE,161,2.0,4.0,43,0.00,,,0.02,weatherlink.com 1.10,2013-04-25 17:36:00,
2013-04-25 13:51:00,61.2,37.0,30.12,SSW,198,3.0,5.0,41,0.00,,,0.02,weatherlink.com 1.10,2013-04-25 17:51:00,
2013-04-25 14:07:00,60.9,40.0,30.12,South,176,3.0,5.0,47,0.00,,,0.02,weatherlink.com 1.10,2013-04-25 18:07:00,
2013-04-25 14:22:00,61.4,41.0,30.12,West,264,1.0,6.0,48,0.00,,,0.02,weatherlink.com 1.10,2013-04-25 18:22:00,
2013-04-25 14:37:00,62.4,43.0,30.12,SSW,212,5.0,8.0,50,0.00,,,0.02,weatherlink.com 1.10,2013-04-25 18:37:00,
2013-04-25 14:52:00,60.5,44.0,30.12,South,188,4.0,5.0,55,0.00,,,0.02,weatherlink.com 1.10,2013-04-25 18:52:00,
2013-04-25 15:07:00,59.6,45.0,30.12,SW,223,3.0,6.0,58,0.00,,,0.02,weatherlink.com 1.10,2013-04-25 19:07:00,
2013-04-25 15:22:00,58.1,45.0,30.11,SE,140,3.0,9.0,61,0.00,,,0.02,weatherlink.com 1.10,2013-04-25 19:22:00,
2013-04-25 15:37:00,57.6,44.0,30.12,SSW,207,4.0,6.0,62,0.00,,,0.02,weatherlink.com 1.10,2013-04-25 19:37:00,
2013-04-25 15:52:00,56.0,44.0,30.12,SSE,152,1.0,5.0,65,0.00,,,0.02,weatherlink.com 1.10,2013-04-25 19:52:00,
2013-04-25 16:07:00,55.7,45.0,30.13,SSW,212,0.0,9.0,68,0.00,,,0.02,weatherlink.com 1.10,2013-04-25 20:07:00,
2013-04-25 16:22:00,56.6,45.0,30.12,SSE,152,0.0,8.0,66,0.00,,,0.02,weatherlink.com 1.10,2013-04-25 20:22:00,
2013-04-25 16:37:00,55.6,46.0,30.13,South,186,2.0,7.0,69,0.00,,,0.02,weatherlink.com 1.10,2013-04-25 20:37:00,
2013-04-25 16:52:00,54.9,46.0,30.13,South,176,1.0,6.0,71,0.00,,,0.02,weatherlink.com 1.10,2013-04-25 20:52:00,
2013-04-25 17:07:00,54.5,46.0,30.14,SSW,192,3.0,4.0,73,0.00,,,0.02,weatherlink.com 1.10,2013-04-25 21:07:00,
2013-04-25 17:22:00,55.0,46.0,30.14,ESE,122,4.0,4.0,71,0.00,,,0.02,weatherlink.com 1.10,2013-04-25 21:22:00,
2013-04-25 17:37:00,55.5,45.0,30.14,SE,146,2.0,4.0,69,0.00,,,0.02,weatherlink.com 1.10,2013-04-25 21:37:00,
2013-04-25 17:52:00,56.8,44.0,30.14,ESE,121,2.0,3.0,63,0.00,,,0.02,weatherlink.com 1.10,2013-04-25 21:52:00,
2013-04-25 18:07:00,56.2,44.0,30.14,SE,130,0.0,4.0,65,0.00,,,0.02,weatherlink.com 1.10,2013-04-25 22:07:00,
2013-04-25 18:22:00,57.3,41.0,30.15,South,173,0.0,6.0,54,0.00,,,0.02,weatherlink.com 1.10,2013-04-25 22:22:00,
2013-04-25 18:37:00,57.2,39.0,30.15,South,186,3.0,6.0,50,0.00,,,0.02,weatherlink.com 1.10,2013-04-25 22:37:00,
2013-04-25 18:52:00,56.9,40.0,30.16,SSE,154,1.0,3.0,53,0.00,,,0.02,weatherlink.com 1.10,2013-04-25 22:52:00,
2013-04-25 19:07:00,56.9,38.0,30.16,SSW,206,0.0,2.0,50,0.00,,,0.02,weatherlink.com 1.10,2013-04-25 23:07:00,
2013-04-25 19:22:00,55.8,38.0,30.17,East,81,0.0,1.0,51,0.00,,,0.02,weatherlink.com 1.10,2013-04-25 23:22:00,
2013-04-25 19:37:00,54.9,38.0,30.18,East,96,0.0,1.0,54,0.00,,,0.02,weatherlink.com 1.10,2013-04-25 23:37:00,
2013-04-25 19:52:00,53.5,41.0,30.19,SSE,149,0.0,2.0,64,0.00,,,0.02,weatherlink.com 1.10,2013-04-25 23:52:00,
2013-04-25 20:07:00,51.7,42.0,30.19,SSE,159,0.0,2.0,70,0.00,,,0.02,weatherlink.com 1.10,2013-04-26 00:07:00,
2013-04-25 20:22:00,50.5,42.0,30.20,SE,129,0.0,1.0,73,0.00,,,0.02,weatherlink.com 1.10,2013-04-26 00:22:00,
2013-04-25 20:37:00,49.6,42.0,30.21,SE,129,0.0,1.0,75,0.00,,,0.02,weatherlink.com 1.10,2013-04-26 00:37:00,
2013-04-25 20:52:00,49.1,42.0,30.22,ESE,122,0.0,0.0,76,0.00,,,0.02,weatherlink.com 1.10,2013-04-26 00:52:00,
2013-04-25 21:07:00,48.5,42.0,30.22,ESE,123,0.0,1.0,78,0.00,,,0.02,weatherlink.com 1.10,2013-04-26 01:07:00,
2013-04-25 21:22:00,47.4,42.0,30.23,ESE,123,0.0,0.0,80,0.00,,,0.02,weatherlink.com 1.10,2013-04-26 01:22:00,
2013-04-25 21:37:00,46.7,42.0,30.23,ESE,123,0.0,0.0,83,0.00,,,0.02,weatherlink.com 1.10,2013-04-26 01:37:00,
2013-04-25 21:52:00,45.9,42.0,30.24,ESE,123,0.0,0.0,85,0.00,,,0.02,weatherlink.com 1.10,2013-04-26 01:52:00,
2013-04-25 22:07:00,45.4,42.0,30.24,ESE,123,0.0,0.0,86,0.00,,,0.02,weatherlink.com 1.10,2013-04-26 02:07:00,
2013-04-25 22:22:00,44.1,41.0,30.25,ESE,123,0.0,0.0,88,0.00,,,0.02,weatherlink.com 1.10,2013-04-26 02:22:00,
2013-04-25 22:37:00,43.9,41.0,30.25,ESE,123,0.0,0.0,90,0.00,,,0.02,weatherlink.com 1.10,2013-04-26 02:37:00,
2013-04-25 22:52:00,43.6,41.0,30.25,ESE,123,0.0,0.0,89,0.00,,,0.02,weatherlink.com 1.10,2013-04-26 02:52:00,
2013-04-25 23:07:00,42.9,40.0,30.25,ESE,123,0.0,0.0,90,0.00,,,0.02,weatherlink.com 1.10,2013-04-26 03:07:00,
2013-04-25 23:23:00,42.3,40.0,30.25,ESE,123,0.0,0.0,91,0.00,,,0.02,weatherlink.com 1.10,2013-04-26 03:23:00,
2013-04-25 23:38:00,41.9,40.0,30.25,ESE,123,0.0,0.0,92,0.00,,,0.02,weatherlink.com 1.10,2013-04-26 03:38:00,
2013-04-25 23:53:00,41.6,40.0,30.26,ESE,123,0.0,0.0,92,0.00,,,0.02,weatherlink.com 1.10,2013-04-26 03:53:00,